sensor_id;sensor_type;location;lat;lon;timestamp;pressure;altitude;pressure_sealevel;temperature;humidity
30708;BME280;17458;48.958;8.284;2023-06-14T00:01:47;99788.53;;;19.31;53.69
30708;BME280;17458;48.958;8.284;2023-06-14T00:04:32;99785.06;;;19.47;53.15
30708;BME280;17458;48.958;8.284;2023-06-14T00:07:16;99795.75;;;19.35;53.25
30708;BME280;17458;48.958;8.284;2023-06-14T00:10:00;99779.50;;;19.18;54.15
30708;BME280;17458;48.958;8.284;2023-06-14T00:12:44;99783.81;;;18.96;55.31
30708;BME280;17458;48.958;8.284;2023-06-14T00:15:28;99783.56;;;18.60;55.27
30708;BME280;17458;48.958;8.284;2023-06-14T00:18:14;99782.91;;;18.90;54.41
30708;BME280;17458;48.958;8.284;2023-06-14T00:21:00;99775.72;;;18.89;53.93
30708;BME280;17458;48.958;8.284;2023-06-14T00:23:46;99778.34;;;18.84;53.24
30708;BME280;17458;48.958;8.284;2023-06-14T00:26:30;99785.59;;;18.90;53.33
30708;BME280;17458;48.958;8.284;2023-06-14T00:29:14;99779.97;;;18.59;52.80
30708;BME280;17458;48.958;8.284;2023-06-14T00:31:58;99776.50;;;18.75;52.29
30708;BME280;17458;48.958;8.284;2023-06-14T00:34:44;99777.16;;;18.53;51.68
30708;BME280;17458;48.958;8.284;2023-06-14T00:37:28;99776.22;;;18.45;51.24
30708;BME280;17458;48.958;8.284;2023-06-14T00:40:12;99774.25;;;18.29;51.02
30708;BME280;17458;48.958;8.284;2023-06-14T00:42:56;99771.59;;;18.30;51.27
30708;BME280;17458;48.958;8.284;2023-06-14T00:45:40;99765.38;;;18.39;50.63
30708;BME280;17458;48.958;8.284;2023-06-14T00:48:24;99764.59;;;18.48;49.84
30708;BME280;17458;48.958;8.284;2023-06-14T00:51:09;99766.03;;;18.14;50.67
30708;BME280;17458;48.958;8.284;2023-06-14T00:53:53;99765.47;;;18.47;49.78
30708;BME280;17458;48.958;8.284;2023-06-14T00:56:38;99770.63;;;18.22;49.73
30708;BME280;17458;48.958;8.284;2023-06-14T00:59:23;99769.25;;;18.68;48.92
30708;BME280;17458;48.958;8.284;2023-06-14T01:02:07;99771.75;;;18.46;48.86
30708;BME280;17458;48.958;8.284;2023-06-14T01:04:54;99772.53;;;18.34;48.71
30708;BME280;17458;48.958;8.284;2023-06-14T01:11:06;99766.66;;;18.77;47.57
30708;BME280;17458;48.958;8.284;2023-06-14T01:13:52;99769.94;;;18.46;47.52
30708;BME280;17458;48.958;8.284;2023-06-14T01:16:40;99778.25;;;18.70;46.70
30708;BME280;17458;48.958;8.284;2023-06-14T01:19:24;99772.91;;;18.73;46.99
30708;BME280;17458;48.958;8.284;2023-06-14T01:22:09;99782.81;;;18.79;47.07
30708;BME280;17458;48.958;8.284;2023-06-14T01:24:54;99773.59;;;18.56;47.19
30708;BME280;17458;48.958;8.284;2023-06-14T01:27:42;99770.19;;;18.70;46.68
30708;BME280;17458;48.958;8.284;2023-06-14T01:30:26;99772.88;;;18.72;46.90
30708;BME280;17458;48.958;8.284;2023-06-14T01:33:13;99774.50;;;18.56;47.44
30708;BME280;17458;48.958;8.284;2023-06-14T01:35:58;99776.31;;;18.57;47.27
30708;BME280;17458;48.958;8.284;2023-06-14T01:38:44;99781.66;;;18.51;47.07
30708;BME280;17458;48.958;8.284;2023-06-14T01:41:29;99787.06;;;18.56;47.08
30708;BME280;17458;48.958;8.284;2023-06-14T01:44:17;99786.28;;;18.64;46.84
30708;BME280;17458;48.958;8.284;2023-06-14T01:47:01;99781.56;;;18.42;47.27
30708;BME280;17458;48.958;8.284;2023-06-14T01:49:46;99784.50;;;18.63;46.75
30708;BME280;17458;48.958;8.284;2023-06-14T01:52:30;99779.13;;;18.69;46.42
30708;BME280;17458;48.958;8.284;2023-06-14T01:55:14;99792.56;;;18.65;46.64
30708;BME280;17458;48.958;8.284;2023-06-14T01:57:58;99783.59;;;18.64;46.57
30708;BME280;17458;48.958;8.284;2023-06-14T02:00:44;99793.63;;;18.87;45.73
30708;BME280;17458;48.958;8.284;2023-06-14T02:03:28;99786.34;;;18.73;46.13
30708;BME280;17458;48.958;8.284;2023-06-14T02:06:12;99783.63;;;18.70;46.39
30708;BME280;17458;48.958;8.284;2023-06-14T02:08:57;99783.59;;;18.63;46.36
30708;BME280;17458;48.958;8.284;2023-06-14T02:11:41;99784.56;;;18.72;46.28
30708;BME280;17458;48.958;8.284;2023-06-14T02:14:25;99779.16;;;18.71;46.25
30708;BME280;17458;48.958;8.284;2023-06-14T02:17:10;99782.69;;;18.64;46.49
30708;BME280;17458;48.958;8.284;2023-06-14T02:19:54;99792.28;;;18.40;47.14
30708;BME280;17458;48.958;8.284;2023-06-14T02:22:38;99790.63;;;18.52;46.99
30708;BME280;17458;48.958;8.284;2023-06-14T02:25:24;99790.38;;;18.24;47.65
30708;BME280;17458;48.958;8.284;2023-06-14T02:28:09;99794.06;;;18.37;47.50
30708;BME280;17458;48.958;8.284;2023-06-14T02:30:53;99796.59;;;18.20;47.94
30708;BME280;17458;48.958;8.284;2023-06-14T02:33:40;99801.13;;;18.24;47.59
30708;BME280;17458;48.958;8.284;2023-06-14T02:36:24;99806.34;;;18.09;48.45
30708;BME280;17458;48.958;8.284;2023-06-14T02:39:09;99809.91;;;18.11;48.66
30708;BME280;17458;48.958;8.284;2023-06-14T02:41:53;99799.16;;;18.10;49.29
30708;BME280;17458;48.958;8.284;2023-06-14T02:44:38;99804.56;;;18.13;49.34
30708;BME280;17458;48.958;8.284;2023-06-14T02:47:22;99800.06;;;18.09;49.72
30708;BME280;17458;48.958;8.284;2023-06-14T02:50:06;99805.25;;;17.93;50.21
30708;BME280;17458;48.958;8.284;2023-06-14T02:52:51;99798.84;;;17.81;50.75
30708;BME280;17458;48.958;8.284;2023-06-14T02:55:36;99803.31;;;17.82;50.81
30708;BME280;17458;48.958;8.284;2023-06-14T02:58:23;99802.00;;;17.51;51.58
30708;BME280;17458;48.958;8.284;2023-06-14T03:01:09;99796.72;;;17.58;51.29
30708;BME280;17458;48.958;8.284;2023-06-14T03:03:56;99798.34;;;17.46;51.92
30708;BME280;17458;48.958;8.284;2023-06-14T03:06:41;99803.44;;;17.26;53.03
30708;BME280;17458;48.958;8.284;2023-06-14T03:09:28;99806.34;;;17.43;52.57
30708;BME280;17458;48.958;8.284;2023-06-14T03:12:13;99811.53;;;17.30;53.01
30708;BME280;17458;48.958;8.284;2023-06-14T03:14:57;99805.41;;;17.41;53.11
30708;BME280;17458;48.958;8.284;2023-06-14T03:17:53;99811.38;;;17.18;54.24
30708;BME280;17458;48.958;8.284;2023-06-14T03:20:38;99810.88;;;17.47;53.35
30708;BME280;17458;48.958;8.284;2023-06-14T03:23:24;99822.19;;;17.23;53.67
30708;BME280;17458;48.958;8.284;2023-06-14T03:26:09;99827.41;;;17.15;52.93
30708;BME280;17458;48.958;8.284;2023-06-14T03:28:53;99821.47;;;17.36;52.21
30708;BME280;17458;48.958;8.284;2023-06-14T03:31:56;99827.88;;;17.47;51.59
30708;BME280;17458;48.958;8.284;2023-06-14T03:34:41;99832.63;;;17.63;51.73
30708;BME280;17458;48.958;8.284;2023-06-14T03:37:28;99840.34;;;18.95;48.00
30708;BME280;17458;48.958;8.284;2023-06-14T03:40:14;99839.91;;;19.60;46.12
30708;BME280;17458;48.958;8.284;2023-06-14T03:43:00;99843.59;;;19.80;45.13
30708;BME280;17458;48.958;8.284;2023-06-14T03:45:45;99841.88;;;19.91;44.84
30708;BME280;17458;48.958;8.284;2023-06-14T03:48:30;99851.75;;;19.97;44.72
30708;BME280;17458;48.958;8.284;2023-06-14T03:51:14;99849.91;;;19.79;45.09
30708;BME280;17458;48.958;8.284;2023-06-14T03:53:59;99860.56;;;19.59;45.44
30708;BME280;17458;48.958;8.284;2023-06-14T03:56:44;99872.97;;;19.36;45.91
30708;BME280;17458;48.958;8.284;2023-06-14T03:59:29;99865.91;;;19.55;45.42
30708;BME280;17458;48.958;8.284;2023-06-14T04:02:13;99864.25;;;19.76;45.16
30708;BME280;17458;48.958;8.284;2023-06-14T04:05:03;99875.16;;;20.05;44.67
30708;BME280;17458;48.958;8.284;2023-06-14T04:07:47;99887.59;;;19.80;44.85
30708;BME280;17458;48.958;8.284;2023-06-14T04:10:32;99886.69;;;19.80;45.03
30708;BME280;17458;48.958;8.284;2023-06-14T04:13:16;99881.44;;;20.09;44.74
30708;BME280;17458;48.958;8.284;2023-06-14T04:16:01;99886.13;;;20.54;43.50
30708;BME280;17458;48.958;8.284;2023-06-14T04:18:50;99897.78;;;20.50;43.73
30708;BME280;17458;48.958;8.284;2023-06-14T04:21:36;99894.19;;;20.49;43.78
30708;BME280;17458;48.958;8.284;2023-06-14T04:24:21;99906.84;;;20.70;43.67
30708;BME280;17458;48.958;8.284;2023-06-14T04:27:07;99903.31;;;21.25;42.65
30708;BME280;17458;48.958;8.284;2023-06-14T04:29:54;99901.47;;;21.75;41.79
30708;BME280;17458;48.958;8.284;2023-06-14T04:32:41;99915.00;;;21.52;41.76
30708;BME280;17458;48.958;8.284;2023-06-14T04:35:28;99905.13;;;21.45;42.28
30708;BME280;17458;48.958;8.284;2023-06-14T04:38:14;99913.19;;;21.12;42.72
30708;BME280;17458;48.958;8.284;2023-06-14T04:40:59;99916.75;;;21.84;41.21
30708;BME280;17458;48.958;8.284;2023-06-14T04:43:46;99915.59;;;22.59;40.23
30708;BME280;17458;48.958;8.284;2023-06-14T04:46:34;99923.88;;;22.23;41.10
30708;BME280;17458;48.958;8.284;2023-06-14T04:49:31;99921.16;;;22.27;40.67
30708;BME280;17458;48.958;8.284;2023-06-14T04:52:17;99929.13;;;22.58;40.87
30708;BME280;17458;48.958;8.284;2023-06-14T04:55:05;99937.34;;;22.35;41.03
30708;BME280;17458;48.958;8.284;2023-06-14T04:57:50;99941.75;;;22.59;40.93
30708;BME280;17458;48.958;8.284;2023-06-14T05:00:37;99946.50;;;21.84;42.12
30708;BME280;17458;48.958;8.284;2023-06-14T05:03:25;99950.06;;;22.13;41.38
30708;BME280;17458;48.958;8.284;2023-06-14T05:06:09;99946.47;;;22.07;40.90
30708;BME280;17458;48.958;8.284;2023-06-14T05:08:53;99941.13;;;21.58;41.70
30708;BME280;17458;48.958;8.284;2023-06-14T05:11:37;99963.59;;;21.78;41.64
30708;BME280;17458;48.958;8.284;2023-06-14T05:14:22;99955.47;;;21.95;41.71
30708;BME280;17458;48.958;8.284;2023-06-14T05:17:08;99950.84;;;22.38;40.60
30708;BME280;17458;48.958;8.284;2023-06-14T05:19:52;99956.25;;;22.43;40.27
30708;BME280;17458;48.958;8.284;2023-06-14T05:22:36;99960.63;;;22.77;39.95
30708;BME280;17458;48.958;8.284;2023-06-14T05:25:20;99963.50;;;22.35;40.81
30708;BME280;17458;48.958;8.284;2023-06-14T05:28:04;99961.69;;;22.43;40.41
30708;BME280;17458;48.958;8.284;2023-06-14T05:30:49;99962.56;;;22.43;40.24
30708;BME280;17458;48.958;8.284;2023-06-14T05:33:33;99980.63;;;22.32;40.43
30708;BME280;17458;48.958;8.284;2023-06-14T05:36:17;99973.41;;;22.36;39.92
30708;BME280;17458;48.958;8.284;2023-06-14T05:39:01;99981.47;;;22.52;39.49
30708;BME280;17458;48.958;8.284;2023-06-14T05:41:46;99985.91;;;22.73;39.16
30708;BME280;17458;48.958;8.284;2023-06-14T05:44:30;99996.94;;;23.77;38.19
30708;BME280;17458;48.958;8.284;2023-06-14T05:47:14;100001.47;;;23.77;37.77
30708;BME280;17458;48.958;8.284;2023-06-14T05:49:59;99993.88;;;24.12;36.93
30708;BME280;17458;48.958;8.284;2023-06-14T05:52:43;99993.53;;;23.46;38.33
30708;BME280;17458;48.958;8.284;2023-06-14T05:55:26;100005.28;;;23.53;38.09
30708;BME280;17458;48.958;8.284;2023-06-14T05:58:11;99990.84;;;23.52;37.57
30708;BME280;17458;48.958;8.284;2023-06-14T06:00:57;100006.19;;;23.47;37.75
30708;BME280;17458;48.958;8.284;2023-06-14T06:03:42;100005.53;;;23.15;38.39
30708;BME280;17458;48.958;8.284;2023-06-14T06:06:29;100005.56;;;23.09;38.04
30708;BME280;17458;48.958;8.284;2023-06-14T06:09:13;100004.84;;;22.70;38.66
30708;BME280;17458;48.958;8.284;2023-06-14T06:11:58;100001.19;;;22.76;38.56
30708;BME280;17458;48.958;8.284;2023-06-14T06:14:42;100001.19;;;22.76;38.61
30708;BME280;17458;48.958;8.284;2023-06-14T06:17:27;100003.91;;;22.85;38.57
30708;BME280;17458;48.958;8.284;2023-06-14T06:20:11;100008.19;;;23.21;38.15
30708;BME280;17458;48.958;8.284;2023-06-14T06:22:55;100013.50;;;23.34;37.59
30708;BME280;17458;48.958;8.284;2023-06-14T06:25:39;100006.34;;;23.29;37.95
30708;BME280;17458;48.958;8.284;2023-06-14T06:28:23;100003.69;;;23.18;38.13
30708;BME280;17458;48.958;8.284;2023-06-14T06:31:07;100017.00;;;23.50;38.39
30708;BME280;17458;48.958;8.284;2023-06-14T06:33:51;100019.72;;;23.56;37.75
30708;BME280;17458;48.958;8.284;2023-06-14T06:36:35;100013.31;;;23.63;37.85
30708;BME280;17458;48.958;8.284;2023-06-14T06:39:21;100016.13;;;23.47;38.07
30708;BME280;17458;48.958;8.284;2023-06-14T06:42:05;100018.75;;;23.60;37.91
30708;BME280;17458;48.958;8.284;2023-06-14T06:44:54;100021.56;;;23.51;38.13
30708;BME280;17458;48.958;8.284;2023-06-14T06:47:38;100025.09;;;23.59;38.08
30708;BME280;17458;48.958;8.284;2023-06-14T06:50:22;100028.50;;;23.86;38.40
30708;BME280;17458;48.958;8.284;2023-06-14T06:53:09;100027.63;;;23.84;38.05
30708;BME280;17458;48.958;8.284;2023-06-14T06:55:53;100032.75;;;24.14;37.28
30708;BME280;17458;48.958;8.284;2023-06-14T06:58:37;100038.09;;;24.20;37.18
30708;BME280;17458;48.958;8.284;2023-06-14T07:01:21;100034.53;;;24.15;37.81
30708;BME280;17458;48.958;8.284;2023-06-14T07:04:05;100035.69;;;24.74;36.98
30708;BME280;17458;48.958;8.284;2023-06-14T07:06:49;100046.16;;;24.31;37.18
30708;BME280;17458;48.958;8.284;2023-06-14T07:09:33;100053.25;;;24.46;37.22
30708;BME280;17458;48.958;8.284;2023-06-14T07:12:17;100048.78;;;24.42;36.93
30708;BME280;17458;48.958;8.284;2023-06-14T07:15:01;100054.94;;;24.56;36.86
30708;BME280;17458;48.958;8.284;2023-06-14T07:17:47;100053.22;;;24.47;37.21
30708;BME280;17458;48.958;8.284;2023-06-14T07:20:31;100055.63;;;23.86;37.68
30708;BME280;17458;48.958;8.284;2023-06-14T07:23:16;100060.38;;;23.49;38.40
30708;BME280;17458;48.958;8.284;2023-06-14T07:26:00;100058.41;;;23.75;38.34
30708;BME280;17458;48.958;8.284;2023-06-14T07:28:44;100063.41;;;24.27;38.44
30708;BME280;17458;48.958;8.284;2023-06-14T07:31:29;100059.50;;;23.54;38.93
30708;BME280;17458;48.958;8.284;2023-06-14T07:34:13;100056.59;;;23.76;38.00
30708;BME280;17458;48.958;8.284;2023-06-14T07:36:57;100065.38;;;24.07;38.53
30708;BME280;17458;48.958;8.284;2023-06-14T07:39:41;100066.59;;;24.65;37.76
30708;BME280;17458;48.958;8.284;2023-06-14T07:42:25;100059.78;;;25.04;37.11
30708;BME280;17458;48.958;8.284;2023-06-14T07:45:09;100067.47;;;24.69;36.88
30708;BME280;17458;48.958;8.284;2023-06-14T07:47:54;100067.94;;;25.04;37.42
30708;BME280;17458;48.958;8.284;2023-06-14T07:50:41;100067.06;;;24.24;36.77
30708;BME280;17458;48.958;8.284;2023-06-14T07:53:26;100072.03;;;24.64;36.66
30708;BME280;17458;48.958;8.284;2023-06-14T07:56:10;100060.47;;;25.22;36.12
30708;BME280;17458;48.958;8.284;2023-06-14T07:58:54;100074.53;;;24.82;36.13
30708;BME280;17458;48.958;8.284;2023-06-14T08:01:38;100075.31;;;24.95;36.72
30708;BME280;17458;48.958;8.284;2023-06-14T08:04:23;100078.44;;;24.57;36.41
30708;BME280;17458;48.958;8.284;2023-06-14T08:07:08;100072.25;;;24.43;36.78
30708;BME280;17458;48.958;8.284;2023-06-14T08:09:52;100074.47;;;24.85;36.67
30708;BME280;17458;48.958;8.284;2023-06-14T08:12:36;100065.84;;;24.53;36.81
30708;BME280;17458;48.958;8.284;2023-06-14T08:15:20;100072.34;;;25.13;35.58
30708;BME280;17458;48.958;8.284;2023-06-14T08:18:04;100066.97;;;25.71;34.98
30708;BME280;17458;48.958;8.284;2023-06-14T08:20:48;100069.44;;;25.27;35.54
30708;BME280;17458;48.958;8.284;2023-06-14T08:23:34;100080.38;;;25.22;34.99
30708;BME280;17458;48.958;8.284;2023-06-14T08:26:18;100072.16;;;25.27;35.63
30708;BME280;17458;48.958;8.284;2023-06-14T08:29:02;100082.16;;;25.26;35.06
30708;BME280;17458;48.958;8.284;2023-06-14T08:31:46;100077.31;;;25.47;35.12
30708;BME280;17458;48.958;8.284;2023-06-14T08:34:30;100083.41;;;25.65;34.05
30708;BME280;17458;48.958;8.284;2023-06-14T08:37:14;100081.06;;;25.39;34.88
30708;BME280;17458;48.958;8.284;2023-06-14T08:39:58;100082.72;;;25.50;34.66
30708;BME280;17458;48.958;8.284;2023-06-14T08:42:43;100075.28;;;25.61;34.83
30708;BME280;17458;48.958;8.284;2023-06-14T08:45:27;100082.09;;;25.89;33.92
30708;BME280;17458;48.958;8.284;2023-06-14T08:48:11;100078.44;;;25.92;33.98
30708;BME280;17458;48.958;8.284;2023-06-14T08:51:02;100076.13;;;26.20;34.58
30708;BME280;17458;48.958;8.284;2023-06-14T08:53:52;100076.38;;;26.57;33.79
30708;BME280;17458;48.958;8.284;2023-06-14T08:56:40;100075.44;;;27.04;33.71
30708;BME280;17458;48.958;8.284;2023-06-14T08:59:28;100076.84;;;26.78;32.77
30708;BME280;17458;48.958;8.284;2023-06-14T09:02:12;100080.88;;;26.58;32.52
30708;BME280;17458;48.958;8.284;2023-06-14T09:04:58;100080.31;;;26.87;32.79
30708;BME280;17458;48.958;8.284;2023-06-14T09:07:44;100074.53;;;26.57;32.45
30708;BME280;17458;48.958;8.284;2023-06-14T09:10:28;100072.97;;;26.45;33.06
30708;BME280;17458;48.958;8.284;2023-06-14T09:13:12;100075.56;;;26.98;33.58
30708;BME280;17458;48.958;8.284;2023-06-14T09:15:56;100078.22;;;27.01;32.54
30708;BME280;17458;48.958;8.284;2023-06-14T09:18:43;100077.78;;;26.30;33.59
30708;BME280;17458;48.958;8.284;2023-06-14T09:21:33;100073.53;;;26.63;32.62
30708;BME280;17458;48.958;8.284;2023-06-14T09:24:18;100083.94;;;26.41;32.54
30708;BME280;17458;48.958;8.284;2023-06-14T09:27:03;100080.47;;;26.79;32.32
30708;BME280;17458;48.958;8.284;2023-06-14T09:29:47;100092.69;;;27.04;32.00
30708;BME280;17458;48.958;8.284;2023-06-14T09:32:31;100090.94;;;27.42;31.53
30708;BME280;17458;48.958;8.284;2023-06-14T09:35:17;100087.66;;;26.81;32.58
30708;BME280;17458;48.958;8.284;2023-06-14T09:38:01;100083.50;;;26.64;31.66
30708;BME280;17458;48.958;8.284;2023-06-14T09:40:45;100085.00;;;26.32;32.35
30708;BME280;17458;48.958;8.284;2023-06-14T09:43:30;100090.13;;;26.95;31.68
30708;BME280;17458;48.958;8.284;2023-06-14T09:46:18;100095.38;;;26.60;31.61
30708;BME280;17458;48.958;8.284;2023-06-14T09:49:04;100087.22;;;26.60;31.64
30708;BME280;17458;48.958;8.284;2023-06-14T09:51:51;100092.25;;;26.81;31.58
30708;BME280;17458;48.958;8.284;2023-06-14T09:54:41;100102.19;;;27.27;31.52
30708;BME280;17458;48.958;8.284;2023-06-14T09:57:30;100108.34;;;27.36;30.73
30708;BME280;17458;48.958;8.284;2023-06-14T10:00:17;100095.78;;;27.69;30.50
30708;BME280;17458;48.958;8.284;2023-06-14T10:03:14;100094.63;;;27.79;30.20
30708;BME280;17458;48.958;8.284;2023-06-14T10:06:03;100096.59;;;28.45;31.00
30708;BME280;17458;48.958;8.284;2023-06-14T10:08:52;100100.06;;;28.52;30.27
30708;BME280;17458;48.958;8.284;2023-06-14T10:11:40;100098.84;;;28.30;30.25
30708;BME280;17458;48.958;8.284;2023-06-14T10:14:28;100096.91;;;28.35;30.01
30708;BME280;17458;48.958;8.284;2023-06-14T10:17:20;100089.13;;;28.18;30.18
30708;BME280;17458;48.958;8.284;2023-06-14T10:22:52;100092.06;;;28.09;30.58
30708;BME280;17458;48.958;8.284;2023-06-14T10:25:42;100086.91;;;28.34;29.49
30708;BME280;17458;48.958;8.284;2023-06-14T10:28:26;100076.75;;;28.03;30.23
30708;BME280;17458;48.958;8.284;2023-06-14T10:31:11;100077.53;;;27.33;31.30
30708;BME280;17458;48.958;8.284;2023-06-14T10:33:57;100081.41;;;27.98;29.92
30708;BME280;17458;48.958;8.284;2023-06-14T10:36:42;100080.38;;;28.04;29.96
30708;BME280;17458;48.958;8.284;2023-06-14T10:39:27;100079.88;;;28.23;29.87
30708;BME280;17458;48.958;8.284;2023-06-14T10:42:12;100076.63;;;27.72;30.85
30708;BME280;17458;48.958;8.284;2023-06-14T10:44:58;100086.22;;;27.88;29.95
30708;BME280;17458;48.958;8.284;2023-06-14T10:47:48;100082.75;;;28.51;28.74
30708;BME280;17458;48.958;8.284;2023-06-14T10:50:32;100084.88;;;28.74;28.44
30708;BME280;17458;48.958;8.284;2023-06-14T10:53:24;100084.50;;;28.54;28.16
30708;BME280;17458;48.958;8.284;2023-06-14T10:56:08;100083.25;;;27.62;28.85
30708;BME280;17458;48.958;8.284;2023-06-14T10:58:52;100072.19;;;28.04;28.97
30708;BME280;17458;48.958;8.284;2023-06-14T11:01:40;100078.13;;;27.45;30.00
30708;BME280;17458;48.958;8.284;2023-06-14T11:04:49;100075.22;;;27.53;28.72
30708;BME280;17458;48.958;8.284;2023-06-14T11:07:48;100076.88;;;27.62;28.69
30708;BME280;17458;48.958;8.284;2023-06-14T11:10:41;100073.94;;;28.42;28.67
30708;BME280;17458;48.958;8.284;2023-06-14T11:13:26;100076.16;;;28.60;28.18
30708;BME280;17458;48.958;8.284;2023-06-14T11:16:15;100072.91;;;28.46;28.89
30708;BME280;17458;48.958;8.284;2023-06-14T11:19:01;100058.38;;;28.10;30.05
30708;BME280;17458;48.958;8.284;2023-06-14T11:21:48;100072.03;;;27.74;30.29
30708;BME280;17458;48.958;8.284;2023-06-14T11:24:32;100056.66;;;26.89;30.78
30708;BME280;17458;48.958;8.284;2023-06-14T11:27:16;100065.81;;;27.28;30.38
30708;BME280;17458;48.958;8.284;2023-06-14T11:30:01;100071.97;;;26.96;30.20
30708;BME280;17458;48.958;8.284;2023-06-14T11:32:49;100079.81;;;27.11;29.52
30708;BME280;17458;48.958;8.284;2023-06-14T11:35:34;100071.19;;;27.71;28.58
30708;BME280;17458;48.958;8.284;2023-06-14T11:38:18;100070.13;;;27.78;28.69
30708;BME280;17458;48.958;8.284;2023-06-14T11:41:02;100065.38;;;27.84;28.95
30708;BME280;17458;48.958;8.284;2023-06-14T11:43:46;100068.59;;;28.02;28.81
30708;BME280;17458;48.958;8.284;2023-06-14T11:46:30;100062.81;;;28.14;29.08
30708;BME280;17458;48.958;8.284;2023-06-14T11:49:14;100056.59;;;28.75;27.99
30708;BME280;17458;48.958;8.284;2023-06-14T11:51:58;100061.59;;;28.27;28.67
30708;BME280;17458;48.958;8.284;2023-06-14T11:54:42;100062.56;;;29.50;28.79
30708;BME280;17458;48.958;8.284;2023-06-14T11:57:26;100058.09;;;28.87;29.39
30708;BME280;17458;48.958;8.284;2023-06-14T12:00:11;100067.47;;;28.46;29.10
30708;BME280;17458;48.958;8.284;2023-06-14T12:02:56;100055.59;;;28.47;28.57
30708;BME280;17458;48.958;8.284;2023-06-14T12:05:40;100049.41;;;29.04;29.44
30708;BME280;17458;48.958;8.284;2023-06-14T12:08:32;100056.59;;;29.36;28.28
30708;BME280;17458;48.958;8.284;2023-06-14T12:11:22;100059.31;;;28.44;30.03
30708;BME280;17458;48.958;8.284;2023-06-14T12:14:08;100057.91;;;28.28;29.83
30708;BME280;17458;48.958;8.284;2023-06-14T12:17:06;100065.13;;;29.56;29.55
30708;BME280;17458;48.958;8.284;2023-06-14T12:19:50;100073.81;;;28.46;29.21
30708;BME280;17458;48.958;8.284;2023-06-14T12:22:35;100067.19;;;27.47;29.46
30708;BME280;17458;48.958;8.284;2023-06-14T12:25:30;100052.47;;;27.93;30.38
30708;BME280;17458;48.958;8.284;2023-06-14T12:28:18;100061.06;;;28.11;29.58
30708;BME280;17458;48.958;8.284;2023-06-14T12:31:02;100048.97;;;28.88;28.48
30708;BME280;17458;48.958;8.284;2023-06-14T12:33:47;100060.78;;;28.56;28.96
30708;BME280;17458;48.958;8.284;2023-06-14T12:36:32;100053.19;;;27.99;29.94
30708;BME280;17458;48.958;8.284;2023-06-14T12:39:17;100057.13;;;28.23;29.94
30708;BME280;17458;48.958;8.284;2023-06-14T12:42:02;100046.03;;;28.94;28.94
30708;BME280;17458;48.958;8.284;2023-06-14T12:44:48;100050.53;;;29.26;28.60
30708;BME280;17458;48.958;8.284;2023-06-14T12:47:32;100050.66;;;28.92;28.80
30708;BME280;17458;48.958;8.284;2023-06-14T12:50:16;100049.78;;;29.50;28.77
30708;BME280;17458;48.958;8.284;2023-06-14T12:53:00;100049.69;;;29.24;28.87
30708;BME280;17458;48.958;8.284;2023-06-14T12:55:44;100050.13;;;29.40;28.27
30708;BME280;17458;48.958;8.284;2023-06-14T12:58:28;100057.00;;;29.53;27.82
30708;BME280;17458;48.958;8.284;2023-06-14T13:01:12;100053.31;;;29.24;28.21
30708;BME280;17458;48.958;8.284;2023-06-14T13:03:56;100041.69;;;29.18;27.92
30708;BME280;17458;48.958;8.284;2023-06-14T13:09:56;100058.19;;;28.84;27.75
30708;BME280;17458;48.958;8.284;2023-06-14T13:12:40;100064.22;;;28.95;28.70
30708;BME280;17458;48.958;8.284;2023-06-14T13:15:24;100052.66;;;29.47;27.84
30708;BME280;17458;48.958;8.284;2023-06-14T13:18:08;100054.22;;;29.54;27.90
30708;BME280;17458;48.958;8.284;2023-06-14T13:20:52;100051.44;;;29.26;27.04
30708;BME280;17458;48.958;8.284;2023-06-14T13:23:36;100050.28;;;29.63;26.89
30708;BME280;17458;48.958;8.284;2023-06-14T13:26:20;100052.16;;;29.33;27.16
30708;BME280;17458;48.958;8.284;2023-06-14T13:29:04;100059.66;;;28.96;28.09
30708;BME280;17458;48.958;8.284;2023-06-14T13:31:49;100054.59;;;28.82;28.46
30708;BME280;17458;48.958;8.284;2023-06-14T13:34:32;100054.63;;;29.11;28.17
30708;BME280;17458;48.958;8.284;2023-06-14T13:37:16;100049.63;;;28.64;27.11
30708;BME280;17458;48.958;8.284;2023-06-14T13:40:00;100048.81;;;29.79;27.84
30708;BME280;17458;48.958;8.284;2023-06-14T13:42:47;100049.19;;;29.69;28.20
30708;BME280;17458;48.958;8.284;2023-06-14T13:45:31;100048.47;;;29.90;27.08
30708;BME280;17458;48.958;8.284;2023-06-14T13:48:15;100055.22;;;29.52;28.62
30708;BME280;17458;48.958;8.284;2023-06-14T13:51:02;100053.69;;;29.71;27.29
30708;BME280;17458;48.958;8.284;2023-06-14T13:53:48;100042.41;;;28.93;27.37
30708;BME280;17458;48.958;8.284;2023-06-14T13:56:33;100040.66;;;29.20;29.85
30708;BME280;17458;48.958;8.284;2023-06-14T13:59:16;100044.16;;;28.96;27.66
30708;BME280;17458;48.958;8.284;2023-06-14T14:02:00;100042.25;;;29.29;27.40
30708;BME280;17458;48.958;8.284;2023-06-14T14:04:44;100039.22;;;29.66;27.11
30708;BME280;17458;48.958;8.284;2023-06-14T14:07:35;100042.00;;;29.65;26.54
30708;BME280;17458;48.958;8.284;2023-06-14T14:10:20;100040.94;;;29.70;26.69
30708;BME280;17458;48.958;8.284;2023-06-14T14:13:04;100035.69;;;29.05;27.37
30708;BME280;17458;48.958;8.284;2023-06-14T14:15:48;100040.34;;;29.31;27.00
30708;BME280;17458;48.958;8.284;2023-06-14T14:18:36;100044.00;;;29.87;27.29
30708;BME280;17458;48.958;8.284;2023-06-14T14:21:20;100039.63;;;29.82;27.87
30708;BME280;17458;48.958;8.284;2023-06-14T14:24:05;100043.59;;;30.26;27.76
30708;BME280;17458;48.958;8.284;2023-06-14T14:26:49;100040.03;;;29.12;27.75
30708;BME280;17458;48.958;8.284;2023-06-14T14:29:33;100026.34;;;29.70;27.29
30708;BME280;17458;48.958;8.284;2023-06-14T14:32:17;100047.75;;;29.27;27.07
30708;BME280;17458;48.958;8.284;2023-06-14T14:35:01;100041.03;;;29.38;27.50
30708;BME280;17458;48.958;8.284;2023-06-14T14:37:45;100044.72;;;29.66;26.74
30708;BME280;17458;48.958;8.284;2023-06-14T14:40:29;100040.91;;;30.24;27.78